createdAt,value
2022-10-25T00:01:31.700Z,12.44
2022-10-25T00:03:59.982Z,12.44
2022-10-25T00:06:28.033Z,12.43
2022-10-25T00:08:56.048Z,12.43
2022-10-25T00:11:28.084Z,12.42
2022-10-25T00:13:58.865Z,12.41
2022-10-25T00:16:29.941Z,12.41
2022-10-25T00:18:58.010Z,12.40
2022-10-25T00:21:26.548Z,12.40
2022-10-25T00:23:54.597Z,12.40
2022-10-25T00:26:22.750Z,12.40
2022-10-25T00:28:54.501Z,12.39
2022-10-25T00:31:23.798Z,12.39
2022-10-25T00:33:52.132Z,12.39
2022-10-25T00:36:23.369Z,12.40
2022-10-25T00:38:51.818Z,12.38
2022-10-25T00:41:23.540Z,12.38
2022-10-25T00:43:54.513Z,12.37
2022-10-25T00:46:28.188Z,12.37
2022-10-25T00:49:12.912Z,12.37
2022-10-25T00:51:51.677Z,12.36
2022-10-25T00:54:29.376Z,12.37
2022-10-25T00:57:01.266Z,12.37
2022-10-25T00:59:29.671Z,12.38
2022-10-25T01:01:58.328Z,12.38
2022-10-25T01:04:29.009Z,12.37
2022-10-25T01:06:57.611Z,12.37
2022-10-25T01:09:28.769Z,12.37
2022-10-25T01:11:57.068Z,12.36
2022-10-25T01:14:27.047Z,12.36
2022-10-25T01:17:16.160Z,12.35
2022-10-25T01:20:22.925Z,12.34
2022-10-25T01:23:40.543Z,12.33
2022-10-25T01:26:53.993Z,12.31
2022-10-25T01:29:49.301Z,12.29
2022-10-25T01:32:32.554Z,12.29
2022-10-25T01:35:09.478Z,12.26
2022-10-25T01:38:15.925Z,12.25
2022-10-25T01:41:00.210Z,12.25
2022-10-25T01:43:39.016Z,12.24
2022-10-25T01:46:26.178Z,12.22
2022-10-25T01:49:07.992Z,12.21
2022-10-25T01:51:37.098Z,12.19
2022-10-25T01:54:26.502Z,12.19
2022-10-25T01:57:12.710Z,12.17
2022-10-25T01:59:56.291Z,12.16
2022-10-25T02:03:03.546Z,12.13
2022-10-25T02:05:50.336Z,12.11
2022-10-25T02:08:18.388Z,12.09
2022-10-25T02:11:01.421Z,12.08
2022-10-25T02:13:52.388Z,12.06
2022-10-25T02:16:31.116Z,12.05
2022-10-25T02:19:05.662Z,12.02
2022-10-25T02:21:36.543Z,12.01
2022-10-25T02:24:13.867Z,11.99
2022-10-25T02:26:44.788Z,11.99
2022-10-25T02:29:14.744Z,11.97
2022-10-25T02:31:43.886Z,11.97
2022-10-25T02:34:12.085Z,11.94
2022-10-25T02:36:40.099Z,11.94
2022-10-25T02:39:08.840Z,11.92
2022-10-25T02:41:36.845Z,11.92
2022-10-25T02:44:04.893Z,11.91
2022-10-25T02:46:32.883Z,11.91
2022-10-25T02:49:00.818Z,11.90
2022-10-25T02:51:28.905Z,11.89
2022-10-25T02:53:57.012Z,11.88
2022-10-25T02:56:25.090Z,11.86
2022-10-25T02:58:56.762Z,11.83
2022-10-25T03:01:26.479Z,11.81
2022-10-25T03:03:54.805Z,11.79
2022-10-25T03:06:22.809Z,11.75
2022-10-25T03:08:50.777Z,11.73
2022-10-25T03:11:18.824Z,11.69
2022-10-25T03:13:46.907Z,11.64
2022-10-25T03:16:14.854Z,11.59
2022-10-25T03:18:42.799Z,11.56
2022-10-25T03:21:10.776Z,11.51
2022-10-25T03:23:38.734Z,11.47
2022-10-25T03:26:06.759Z,11.44
2022-10-25T03:28:34.843Z,11.42
2022-10-25T03:31:02.794Z,11.39
2022-10-25T03:36:04.053Z,11.34
2022-10-25T03:38:32.167Z,11.32
2022-10-25T03:41:00.170Z,11.32
2022-10-25T03:43:28.383Z,11.31
2022-10-25T03:45:56.836Z,11.30
2022-10-25T03:48:25.003Z,11.29
2022-10-25T03:50:54.365Z,11.31
2022-10-25T03:53:22.905Z,11.32
2022-10-25T03:55:50.964Z,11.32
2022-10-25T03:58:19.916Z,11.34
2022-10-25T04:00:48.320Z,11.34
2022-10-25T04:03:16.723Z,11.34
2022-10-25T04:05:44.772Z,11.33
2022-10-25T04:08:12.944Z,11.32
2022-10-25T04:10:41.007Z,11.30
2022-10-25T04:13:08.937Z,11.28
2022-10-25T04:15:38.806Z,11.27
2022-10-25T04:18:06.716Z,11.25
2022-10-25T04:20:34.748Z,11.24
2022-10-25T04:23:02.785Z,11.21
2022-10-25T04:25:30.787Z,11.19
2022-10-25T04:27:59.933Z,11.18
2022-10-25T04:30:28.091Z,11.17
2022-10-25T04:32:58.164Z,11.15
2022-10-25T04:35:26.069Z,11.13
2022-10-25T04:37:57.419Z,11.12
2022-10-25T04:40:25.543Z,11.12
2022-10-25T04:42:53.484Z,11.13
2022-10-25T04:45:21.370Z,11.14
2022-10-25T04:47:49.467Z,11.14
2022-10-25T04:50:17.536Z,11.14
2022-10-25T04:52:46.052Z,11.13
2022-10-25T04:55:14.279Z,11.14
2022-10-25T04:57:42.335Z,11.14
2022-10-25T05:00:11.160Z,11.14
2022-10-25T05:02:39.234Z,11.14
2022-10-25T05:05:07.609Z,11.13
2022-10-25T05:07:35.565Z,11.13
2022-10-25T05:10:04.080Z,11.13
2022-10-25T05:12:32.096Z,11.13
2022-10-25T05:15:00.000Z,11.13
2022-10-25T05:17:28.944Z,11.13
2022-10-25T05:19:56.889Z,11.13
2022-10-25T05:22:25.800Z,11.12
2022-10-25T05:24:54.367Z,11.10
2022-10-25T05:27:22.348Z,11.10
2022-10-25T05:29:50.274Z,11.09
2022-10-25T05:32:18.266Z,11.09
2022-10-25T05:34:46.247Z,11.07
2022-10-25T05:37:14.304Z,11.06
2022-10-25T05:39:42.217Z,11.04
2022-10-25T05:42:10.137Z,11.03
2022-10-25T05:44:38.347Z,11.02
2022-10-25T05:47:06.632Z,11.03
2022-10-25T05:49:39.646Z,11.03
2022-10-25T05:52:07.673Z,11.02
2022-10-25T05:54:35.851Z,11.01
2022-10-25T05:57:04.032Z,11.00
2022-10-25T05:59:32.023Z,10.99
2022-10-25T06:02:00.131Z,10.99
2022-10-25T06:04:28.299Z,10.98
2022-10-25T06:06:58.069Z,10.96
2022-10-25T06:09:26.117Z,10.96
2022-10-25T06:11:54.184Z,10.97
2022-10-25T06:14:22.098Z,10.96
2022-10-25T06:16:50.085Z,10.98
2022-10-25T06:19:18.007Z,11.01
2022-10-25T06:21:46.928Z,11.05
2022-10-25T06:24:15.017Z,11.08
2022-10-25T06:26:43.099Z,11.11
2022-10-25T06:29:11.128Z,11.14
2022-10-25T06:31:41.760Z,11.18
2022-10-25T06:34:09.814Z,11.22
2022-10-25T06:36:37.831Z,11.25
2022-10-25T06:39:08.746Z,11.29
2022-10-25T06:41:50.147Z,11.33
2022-10-25T06:44:26.561Z,11.39
2022-10-25T06:49:42.784Z,11.51
2022-10-25T06:52:10.847Z,11.57
2022-10-25T06:54:38.878Z,11.62
2022-10-25T06:57:06.902Z,11.66
2022-10-25T06:59:34.933Z,11.70
2022-10-25T07:02:03.107Z,11.74
2022-10-25T07:04:32.745Z,11.77
2022-10-25T07:07:01.502Z,11.80
2022-10-25T07:09:29.832Z,11.79
2022-10-25T07:11:57.899Z,11.78
2022-10-25T07:14:25.837Z,11.81
2022-10-25T07:16:53.839Z,11.84
2022-10-25T07:19:23.895Z,11.86
2022-10-25T07:21:51.924Z,11.84
2022-10-25T07:24:20.015Z,11.81
2022-10-25T07:26:48.135Z,11.78
2022-10-25T07:29:16.146Z,11.74
2022-10-25T07:31:44.529Z,11.71
2022-10-25T07:34:14.688Z,11.72
2022-10-25T07:36:43.092Z,11.73
2022-10-25T07:39:11.153Z,11.72
2022-10-25T07:41:39.116Z,11.70
2022-10-25T07:44:08.755Z,11.72
2022-10-25T07:46:38.712Z,11.83
2022-10-25T07:49:06.627Z,11.95
2022-10-25T07:51:34.640Z,12.03
2022-10-25T07:54:02.738Z,12.08
2022-10-25T07:56:30.818Z,12.10
2022-10-25T07:58:59.125Z,12.14
2022-10-25T08:01:28.689Z,12.19
2022-10-25T08:03:57.118Z,12.24
2022-10-25T08:06:26.384Z,12.28
2022-10-25T08:08:54.437Z,12.34
2022-10-25T08:11:22.506Z,12.41
2022-10-25T08:13:50.799Z,12.47
2022-10-25T08:16:19.216Z,12.52
2022-10-25T08:18:47.373Z,12.58
2022-10-25T08:21:16.355Z,12.63
2022-10-25T08:23:44.557Z,12.66
2022-10-25T08:26:12.708Z,12.66
2022-10-25T08:28:41.359Z,12.68
2022-10-25T08:31:10.452Z,12.71
2022-10-25T08:33:38.633Z,12.76
2022-10-25T08:36:07.027Z,12.82
2022-10-25T08:38:35.099Z,12.92
2022-10-25T08:41:07.273Z,13.03
2022-10-25T08:43:35.338Z,13.14
2022-10-25T08:46:16.234Z,13.22
2022-10-25T08:48:49.242Z,13.24
2022-10-25T08:51:33.938Z,13.25
2022-10-25T08:54:10.737Z,13.26
2022-10-25T08:56:46.667Z,13.29
2022-10-25T08:59:30.455Z,13.32
2022-10-25T09:02:00.269Z,13.34
2022-10-25T09:04:30.518Z,13.35
2022-10-25T09:07:27.264Z,13.37
2022-10-25T09:10:06.935Z,13.38
2022-10-25T09:13:36.558Z,13.36
2022-10-25T09:16:13.036Z,13.21
2022-10-25T09:18:46.206Z,13.05
2022-10-25T09:21:23.019Z,12.89
2022-10-25T09:24:01.666Z,12.80
2022-10-25T09:26:39.049Z,12.67
2022-10-25T09:29:22.350Z,12.59
2022-10-25T09:31:55.348Z,12.51
2022-10-25T09:34:24.979Z,12.42
2022-10-25T09:37:02.193Z,12.34
2022-10-25T09:39:41.762Z,12.24
2022-10-25T09:42:25.047Z,12.13
2022-10-25T09:45:02.049Z,12.03
2022-10-25T09:47:33.046Z,11.96
2022-10-25T09:50:32.212Z,11.87
2022-10-25T09:53:16.657Z,11.78
2022-10-25T09:55:57.321Z,11.72
2022-10-25T09:58:34.086Z,11.68
2022-10-25T10:01:09.122Z,11.67
2022-10-25T10:03:37.900Z,11.63
2022-10-25T10:06:18.832Z,11.61
2022-10-25T10:08:53.184Z,11.64
2022-10-25T10:11:21.625Z,11.69
2022-10-25T10:13:57.501Z,11.74
2022-10-25T10:16:44.180Z,11.78
2022-10-25T10:19:19.732Z,11.83
2022-10-25T10:21:51.758Z,11.88
2022-10-25T10:24:20.901Z,11.95
2022-10-25T10:26:55.763Z,12.01
2022-10-25T10:29:28.717Z,12.04
2022-10-25T10:32:00.695Z,12.05
2022-10-25T10:34:34.635Z,12.06
2022-10-25T10:37:12.821Z,12.08
2022-10-25T10:40:07.144Z,12.08
2022-10-25T10:42:37.972Z,12.07
2022-10-25T10:45:08.060Z,12.07
2022-10-25T10:47:55.796Z,12.08
2022-10-25T10:50:24.538Z,12.07
2022-10-25T10:53:01.049Z,12.08
2022-10-25T10:55:34.712Z,12.11
2022-10-25T10:58:16.593Z,12.16
2022-10-25T11:01:29.684Z,12.22
2022-10-25T11:04:00.753Z,12.26
2022-10-25T11:06:34.246Z,12.28
2022-10-25T11:09:12.963Z,12.29
2022-10-25T11:11:41.380Z,12.30
2022-10-25T11:14:17.161Z,12.31
2022-10-25T11:17:28.502Z,12.32
2022-10-25T11:20:20.984Z,12.38
2022-10-25T11:22:54.894Z,12.44
2022-10-25T11:25:35.934Z,12.48
2022-10-25T11:28:22.438Z,12.52
2022-10-25T11:31:08.400Z,12.56
2022-10-25T11:33:43.625Z,12.62
2022-10-25T11:36:49.212Z,12.71
2022-10-25T11:39:48.497Z,12.78
2022-10-25T11:43:02.565Z,12.83
2022-10-25T11:45:48.695Z,12.83
2022-10-25T11:48:35.721Z,12.81
2022-10-25T11:51:44.978Z,12.79
2022-10-25T11:54:19.005Z,12.86
2022-10-25T11:57:29.926Z,12.93
2022-10-25T12:00:24.368Z,13.04
2022-10-25T12:02:55.122Z,13.09
2022-10-25T12:05:28.840Z,13.12
2022-10-25T12:08:34.167Z,13.14
2022-10-25T12:11:13.732Z,13.17
2022-10-25T12:13:49.463Z,13.22
2022-10-25T12:16:20.230Z,13.33
2022-10-25T12:18:51.641Z,13.44
2022-10-25T12:21:28.121Z,13.49
2022-10-25T12:23:57.322Z,13.52
2022-10-25T12:26:36.158Z,13.54
2022-10-25T12:29:12.337Z,13.50
2022-10-25T12:31:52.282Z,13.42
2022-10-25T12:34:40.530Z,13.31
2022-10-25T12:37:19.669Z,13.23
2022-10-25T12:39:48.151Z,13.19
2022-10-25T12:42:26.053Z,13.16
2022-10-25T12:45:00.241Z,13.16
2022-10-25T12:47:43.341Z,13.19
2022-10-25T12:50:24.948Z,13.18
2022-10-25T12:53:30.241Z,13.16
2022-10-25T12:56:02.937Z,13.15
2022-10-25T12:58:45.966Z,13.14
2022-10-25T13:01:13.998Z,13.14
2022-10-25T13:04:00.249Z,13.16
2022-10-25T13:06:28.223Z,13.20
2022-10-25T13:09:04.353Z,13.25
2022-10-25T13:11:47.649Z,13.25
2022-10-25T13:14:24.894Z,13.26
2022-10-25T13:16:53.201Z,13.30
2022-10-25T13:19:30.658Z,13.33
2022-10-25T13:22:30.657Z,13.29
2022-10-25T13:25:24.306Z,13.21
2022-10-25T13:28:10.897Z,13.12
2022-10-25T13:30:40.397Z,13.04
2022-10-25T13:33:24.595Z,12.98
2022-10-25T13:35:53.114Z,12.94
2022-10-25T13:38:23.484Z,12.89
2022-10-25T13:41:10.366Z,12.87
2022-10-25T13:44:01.949Z,12.84
2022-10-25T13:46:41.462Z,12.82
2022-10-25T13:49:43.051Z,12.80
2022-10-25T13:52:57.855Z,12.77
2022-10-25T13:55:38.207Z,12.73
2022-10-25T13:58:31.295Z,12.69
2022-10-25T14:01:21.721Z,12.66
2022-10-25T14:03:53.277Z,12.62
2022-10-25T14:06:30.308Z,12.58
2022-10-25T14:09:13.242Z,12.55
2022-10-25T14:11:51.708Z,12.52
2022-10-25T14:14:29.907Z,12.50
2022-10-25T14:17:22.778Z,12.48
2022-10-25T14:19:57.758Z,12.45
2022-10-25T14:22:34.933Z,12.46
2022-10-25T14:25:14.382Z,12.47
2022-10-25T14:27:42.513Z,12.45
2022-10-25T14:30:24.370Z,12.41
2022-10-25T14:32:55.731Z,12.38
2022-10-25T14:35:33.959Z,12.36
2022-10-25T14:38:04.085Z,12.36
2022-10-25T14:40:32.388Z,12.36
2022-10-25T14:43:39.615Z,12.35
2022-10-25T14:46:10.503Z,12.33
2022-10-25T14:48:38.612Z,12.32
2022-10-25T14:51:13.718Z,12.31
2022-10-25T14:53:58.036Z,12.29
2022-10-25T14:56:28.472Z,12.27
2022-10-25T14:58:57.175Z,12.25
2022-10-25T15:01:26.052Z,12.22
2022-10-25T15:03:58.276Z,12.20
2022-10-25T15:06:29.985Z,12.18
2022-10-25T15:09:30.057Z,12.16
2022-10-25T15:12:10.178Z,12.15
2022-10-25T15:14:38.868Z,12.14
2022-10-25T15:17:21.742Z,12.13
2022-10-25T15:20:14.376Z,12.11
2022-10-25T15:22:47.627Z,12.07
2022-10-25T15:25:21.706Z,12.03
2022-10-25T15:27:52.657Z,11.99
2022-10-25T15:30:55.950Z,11.96
2022-10-25T15:33:32.262Z,11.90
2022-10-25T15:36:03.237Z,11.87
2022-10-25T15:38:54.349Z,11.84
2022-10-25T15:41:22.699Z,11.82
2022-10-25T15:43:52.160Z,11.81
2022-10-25T15:46:31.132Z,11.80
2022-10-25T15:49:01.113Z,11.79
2022-10-25T15:51:32.337Z,11.79
2022-10-25T15:54:00.482Z,11.78
2022-10-25T15:56:29.326Z,11.78
2022-10-25T15:59:00.379Z,11.78
2022-10-25T16:01:28.783Z,11.78
2022-10-25T16:03:56.892Z,11.78
2022-10-25T16:06:24.972Z,11.78
2022-10-25T16:08:53.397Z,11.78
2022-10-25T16:11:21.935Z,11.76
2022-10-25T16:13:53.240Z,11.74
2022-10-25T16:16:44.150Z,11.74
2022-10-25T16:19:26.484Z,11.73
2022-10-25T16:21:54.519Z,11.73
2022-10-25T16:24:22.803Z,11.71
2022-10-25T16:26:51.321Z,11.67
2022-10-25T16:29:21.919Z,11.64
2022-10-25T16:31:51.084Z,11.62
2022-10-25T16:34:19.898Z,11.59
2022-10-25T16:36:50.585Z,11.59
2022-10-25T16:39:18.680Z,11.57
2022-10-25T16:41:47.996Z,11.56
2022-10-25T16:44:19.765Z,11.55
2022-10-25T16:46:47.793Z,11.53
2022-10-25T16:49:16.101Z,11.52
2022-10-25T16:51:45.016Z,11.51
2022-10-25T16:54:15.589Z,11.50
2022-10-25T16:56:44.265Z,11.48
2022-10-25T16:59:12.723Z,11.47
2022-10-25T17:01:44.534Z,11.45
2022-10-25T17:04:15.027Z,11.43
2022-10-25T17:06:43.499Z,11.38
2022-10-25T17:09:12.144Z,11.34
2022-10-25T17:11:41.139Z,11.30
2022-10-25T17:14:09.953Z,11.26
2022-10-25T17:16:44.615Z,11.22
2022-10-25T17:19:14.447Z,11.19
2022-10-25T17:21:43.174Z,11.15
2022-10-25T17:24:11.594Z,11.13
2022-10-25T17:26:39.583Z,11.10
2022-10-25T17:29:08.010Z,11.07
2022-10-25T17:31:36.179Z,11.06
2022-10-25T17:34:04.314Z,11.02
2022-10-25T17:36:32.771Z,10.99
2022-10-25T17:39:00.952Z,10.97
2022-10-25T17:41:28.995Z,10.93
2022-10-25T17:43:57.917Z,10.92
2022-10-25T17:46:30.803Z,10.90
2022-10-25T17:49:06.915Z,10.87
2022-10-25T17:51:36.115Z,10.86
2022-10-25T17:54:04.388Z,10.84
2022-10-25T17:56:32.568Z,10.82
2022-10-25T17:59:04.301Z,10.78
2022-10-25T18:01:35.833Z,10.75
2022-10-25T18:04:04.593Z,10.74
2022-10-25T18:06:32.682Z,10.69
2022-10-25T18:09:03.200Z,10.66
2022-10-25T18:11:31.633Z,10.63
2022-10-25T18:14:01.977Z,10.58
2022-10-25T18:16:31.550Z,10.56
2022-10-25T18:19:02.774Z,10.53
2022-10-25T18:21:32.048Z,10.50
2022-10-25T18:24:05.227Z,10.48
2022-10-25T18:26:35.359Z,10.47
2022-10-25T18:29:03.745Z,10.44
2022-10-25T18:31:31.841Z,10.40
2022-10-25T18:34:03.507Z,10.37
2022-10-25T18:36:31.814Z,10.35
2022-10-25T18:38:59.861Z,10.33
2022-10-25T18:41:31.177Z,10.32
2022-10-25T18:44:00.142Z,10.30
2022-10-25T18:46:30.935Z,10.30
2022-10-25T18:48:59.448Z,10.30
2022-10-25T18:51:32.316Z,10.29
2022-10-25T18:54:02.362Z,10.27
2022-10-25T18:56:32.686Z,10.26
2022-10-25T18:59:00.812Z,10.27
2022-10-25T19:01:32.809Z,10.26
2022-10-25T19:04:03.901Z,10.27
2022-10-25T19:06:32.800Z,10.27
2022-10-25T19:09:03.062Z,10.26
2022-10-25T19:11:33.029Z,10.26
2022-10-25T19:14:01.532Z,10.25
2022-10-25T19:16:29.951Z,10.24
2022-10-25T19:19:02.266Z,10.25
2022-10-25T19:21:30.349Z,10.25
2022-10-25T19:23:58.503Z,10.27
2022-10-25T19:26:27.136Z,10.29
2022-10-25T19:29:00.494Z,10.29
2022-10-25T19:31:29.171Z,10.31
2022-10-25T19:34:00.533Z,10.33
2022-10-25T19:36:29.763Z,10.34
2022-10-25T19:39:01.794Z,10.34
2022-10-25T19:41:29.984Z,10.34
2022-10-25T19:43:59.776Z,10.34
2022-10-25T19:46:28.028Z,10.35
2022-10-25T19:48:56.581Z,10.35
2022-10-25T19:51:24.597Z,10.37
2022-10-25T19:53:52.576Z,10.38
2022-10-25T19:56:22.288Z,10.40
2022-10-25T19:58:50.935Z,10.40
2022-10-25T20:01:24.420Z,10.38
2022-10-25T20:03:55.541Z,10.38
2022-10-25T20:06:27.022Z,10.37
2022-10-25T20:08:56.549Z,10.36
2022-10-25T20:11:27.996Z,10.35
2022-10-25T20:14:01.928Z,10.35
2022-10-25T20:16:31.609Z,10.32
2022-10-25T20:19:01.697Z,10.31
2022-10-25T20:21:34.155Z,10.28
2022-10-25T20:24:06.021Z,10.24
2022-10-25T20:26:36.419Z,10.21
2022-10-25T20:29:07.633Z,10.19
2022-10-25T20:31:35.621Z,10.16
2022-10-25T20:34:03.841Z,10.14
2022-10-25T20:36:32.203Z,10.10
2022-10-25T20:39:00.119Z,10.07
2022-10-25T20:41:30.102Z,10.04
2022-10-25T20:44:01.932Z,10.01
2022-10-25T20:46:30.746Z,9.99
2022-10-25T20:49:00.454Z,9.97
2022-10-25T20:51:28.536Z,9.94
2022-10-25T20:53:57.079Z,9.91
2022-10-25T20:56:25.074Z,9.89
2022-10-25T20:58:53.034Z,9.86
2022-10-25T21:01:21.222Z,9.83
2022-10-25T21:03:49.353Z,9.82
2022-10-25T21:06:17.411Z,9.80
2022-10-25T21:08:45.410Z,9.77
2022-10-25T21:11:14.221Z,9.74
2022-10-25T21:13:43.415Z,9.70
2022-10-25T21:16:13.737Z,9.69
2022-10-25T21:18:43.045Z,9.66
2022-10-25T21:21:18.101Z,9.62
2022-10-25T21:23:48.007Z,9.59
2022-10-25T21:26:16.349Z,9.55
2022-10-25T21:28:44.414Z,9.52
2022-10-25T21:31:15.168Z,9.49
2022-10-25T21:33:49.942Z,9.46
2022-10-25T21:36:20.695Z,9.44
2022-10-25T21:38:48.815Z,9.42
2022-10-25T21:41:20.984Z,9.40
2022-10-25T21:43:51.014Z,9.39
2022-10-25T21:46:21.350Z,9.36
2022-10-25T21:48:52.802Z,9.35
2022-10-25T21:51:24.496Z,9.30
2022-10-25T21:53:53.959Z,9.26
2022-10-25T21:56:31.217Z,9.23
2022-10-25T21:59:01.018Z,9.23
2022-10-25T22:01:30.448Z,9.23
2022-10-25T22:03:58.971Z,9.21
2022-10-25T22:06:27.638Z,9.21
2022-10-25T22:08:56.462Z,9.20
2022-10-25T22:11:27.616Z,9.19
2022-10-25T22:14:14.303Z,9.18
2022-10-25T22:16:42.415Z,9.17
2022-10-25T22:19:15.936Z,9.18
2022-10-25T22:21:45.119Z,9.18
2022-10-25T22:24:13.280Z,9.18
2022-10-25T22:26:43.813Z,9.18
2022-10-25T22:29:13.807Z,9.19
2022-10-25T22:31:42.053Z,9.18
2022-10-25T22:34:10.536Z,9.18
2022-10-25T22:36:41.111Z,9.17
2022-10-25T22:39:10.334Z,9.17
2022-10-25T22:41:38.724Z,9.16
2022-10-25T22:44:06.681Z,9.14
2022-10-25T22:46:36.034Z,9.12
2022-10-25T22:49:06.645Z,9.12
2022-10-25T22:51:35.867Z,9.10
2022-10-25T22:54:04.211Z,9.09
2022-10-25T22:56:32.520Z,9.07
2022-10-25T22:59:02.821Z,9.05
2022-10-25T23:01:34.171Z,9.04
2022-10-25T23:04:05.282Z,9.02
2022-10-25T23:06:36.220Z,8.99
2022-10-25T23:09:07.258Z,8.97
2022-10-25T23:11:36.871Z,8.95
2022-10-25T23:14:05.665Z,8.92
2022-10-25T23:16:33.634Z,8.91
2022-10-25T23:19:02.532Z,8.88
2022-10-25T23:21:31.135Z,8.85
2022-10-25T23:24:00.338Z,8.82
2022-10-25T23:26:32.241Z,8.81
2022-10-25T23:29:00.845Z,8.78
2022-10-25T23:31:30.438Z,8.76
2022-10-25T23:34:00.098Z,8.73
2022-10-25T23:36:37.484Z,8.71
2022-10-25T23:39:08.069Z,8.70
2022-10-25T23:41:36.582Z,8.68
2022-10-25T23:44:04.800Z,8.67
2022-10-25T23:46:32.755Z,8.65
2022-10-25T23:49:00.810Z,8.63
2022-10-25T23:51:28.834Z,8.60
2022-10-25T23:53:56.756Z,8.58
2022-10-25T23:56:24.747Z,8.55
2022-10-25T23:58:53.836Z,8.54
